sensor_id;sensor_type;location;lat;lon;timestamp;P1;durP1;ratioP1;P2;durP2;ratioP2
13807;SDS011;40769;51.512;5.494;2023-03-01T00:01:11;4.73;;;4.33;;
13807;SDS011;40769;51.512;5.494;2023-03-01T00:03:39;5.63;;;5.13;;
13807;SDS011;40769;51.512;5.494;2023-03-01T00:06:05;5.73;;;5.23;;
13807;SDS011;40769;51.512;5.494;2023-03-01T00:08:31;4.77;;;4.37;;
13807;SDS011;40769;51.512;5.494;2023-03-01T00:11:01;4.27;;;3.90;;
13807;SDS011;40769;51.512;5.494;2023-03-01T00:13:30;3.57;;;3.27;;
13807;SDS011;40769;51.512;5.494;2023-03-01T00:15:56;4.17;;;3.80;;
13807;SDS011;40769;51.512;5.494;2023-03-01T00:18:21;3.90;;;3.57;;
13807;SDS011;40769;51.512;5.494;2023-03-01T00:20:51;3.43;;;3.13;;
13807;SDS011;40769;51.512;5.494;2023-03-01T00:23:18;4.97;;;4.47;;
13807;SDS011;40769;51.512;5.494;2023-03-01T00:25:43;5.03;;;4.57;;
13807;SDS011;40769;51.512;5.494;2023-03-01T00:28:09;5.77;;;5.17;;
13807;SDS011;40769;51.512;5.494;2023-03-01T00:30:35;4.73;;;4.33;;
13807;SDS011;40769;51.512;5.494;2023-03-01T00:33:00;4.87;;;4.40;;
13807;SDS011;40769;51.512;5.494;2023-03-01T00:35:26;5.50;;;5.00;;
13807;SDS011;40769;51.512;5.494;2023-03-01T00:37:51;6.80;;;5.70;;
13807;SDS011;40769;51.512;5.494;2023-03-01T00:40:22;4.67;;;4.27;;
13807;SDS011;40769;51.512;5.494;2023-03-01T00:42:49;4.07;;;3.67;;
13807;SDS011;40769;51.512;5.494;2023-03-01T00:45:15;3.20;;;2.90;;
13807;SDS011;40769;51.512;5.494;2023-03-01T00:47:41;3.67;;;3.37;;
13807;SDS011;40769;51.512;5.494;2023-03-01T00:50:07;3.77;;;3.47;;
13807;SDS011;40769;51.512;5.494;2023-03-01T00:52:33;3.57;;;3.27;;
13807;SDS011;40769;51.512;5.494;2023-03-01T00:54:58;3.37;;;3.13;;
13807;SDS011;40769;51.512;5.494;2023-03-01T00:57:24;3.70;;;3.20;;
13807;SDS011;40769;51.512;5.494;2023-03-01T00:59:49;3.77;;;3.47;;
13807;SDS011;40769;51.512;5.494;2023-03-01T01:02:17;3.37;;;3.10;;
13807;SDS011;40769;51.512;5.494;2023-03-01T01:04:43;3.97;;;3.67;;
13807;SDS011;40769;51.512;5.494;2023-03-01T01:07:09;3.27;;;2.97;;
13807;SDS011;40769;51.512;5.494;2023-03-01T01:09:34;4.17;;;3.87;;
13807;SDS011;40769;51.512;5.494;2023-03-01T01:12:00;4.07;;;3.77;;
13807;SDS011;40769;51.512;5.494;2023-03-01T01:14:26;3.70;;;3.40;;
13807;SDS011;40769;51.512;5.494;2023-03-01T01:16:51;4.63;;;4.23;;
13807;SDS011;40769;51.512;5.494;2023-03-01T01:19:17;3.97;;;3.67;;
13807;SDS011;40769;51.512;5.494;2023-03-01T01:21:43;3.97;;;3.67;;
13807;SDS011;40769;51.512;5.494;2023-03-01T01:24:09;3.63;;;3.33;;
13807;SDS011;40769;51.512;5.494;2023-03-01T01:26:36;5.17;;;4.67;;
13807;SDS011;40769;51.512;5.494;2023-03-01T01:29:02;5.70;;;5.20;;
13807;SDS011;40769;51.512;5.494;2023-03-01T01:31:29;6.03;;;5.53;;
13807;SDS011;40769;51.512;5.494;2023-03-01T01:33:56;5.80;;;5.33;;
13807;SDS011;40769;51.512;5.494;2023-03-01T01:36:24;5.50;;;5.00;;
13807;SDS011;40769;51.512;5.494;2023-03-01T01:38:50;5.10;;;4.70;;
13807;SDS011;40769;51.512;5.494;2023-03-01T01:41:16;4.20;;;3.80;;
13807;SDS011;40769;51.512;5.494;2023-03-01T01:43:43;4.03;;;3.73;;
13807;SDS011;40769;51.512;5.494;2023-03-01T01:46:28;4.40;;;4.00;;
13807;SDS011;40769;51.512;5.494;2023-03-01T01:49:00;4.77;;;4.37;;
13807;SDS011;40769;51.512;5.494;2023-03-01T01:51:31;4.00;;;3.70;;
13807;SDS011;40769;51.512;5.494;2023-03-01T01:54:03;4.30;;;3.83;;
13807;SDS011;40769;51.512;5.494;2023-03-01T01:56:35;4.40;;;4.00;;
13807;SDS011;40769;51.512;5.494;2023-03-01T01:59:04;3.90;;;3.60;;
13807;SDS011;40769;51.512;5.494;2023-03-01T02:01:30;4.50;;;4.10;;
13807;SDS011;40769;51.512;5.494;2023-03-01T02:03:55;4.10;;;3.80;;
13807;SDS011;40769;51.512;5.494;2023-03-01T02:06:23;4.40;;;4.00;;
13807;SDS011;40769;51.512;5.494;2023-03-01T02:09:02;4.30;;;4.00;;
13807;SDS011;40769;51.512;5.494;2023-03-01T02:11:33;4.63;;;4.23;;
13807;SDS011;40769;51.512;5.494;2023-03-01T02:13:59;3.90;;;3.60;;
13807;SDS011;40769;51.512;5.494;2023-03-01T02:16:25;5.07;;;4.33;;
13807;SDS011;40769;51.512;5.494;2023-03-01T02:18:51;4.80;;;4.30;;
13807;SDS011;40769;51.512;5.494;2023-03-01T02:23:56;6.00;;;5.50;;
13807;SDS011;40769;51.512;5.494;2023-03-01T02:26:30;5.73;;;5.23;;
13807;SDS011;40769;51.512;5.494;2023-03-01T02:29:06;5.60;;;5.00;;
13807;SDS011;40769;51.512;5.494;2023-03-01T02:31:32;5.23;;;4.73;;
13807;SDS011;40769;51.512;5.494;2023-03-01T02:34:08;5.60;;;5.10;;
13807;SDS011;40769;51.512;5.494;2023-03-01T02:36:37;5.67;;;5.17;;
13807;SDS011;40769;51.512;5.494;2023-03-01T02:39:06;5.83;;;5.33;;
13807;SDS011;40769;51.512;5.494;2023-03-01T02:41:39;6.20;;;5.60;;
13807;SDS011;40769;51.512;5.494;2023-03-01T02:44:07;5.70;;;5.20;;
13807;SDS011;40769;51.512;5.494;2023-03-01T02:46:34;5.87;;;5.37;;
13807;SDS011;40769;51.512;5.494;2023-03-01T02:49:27;5.80;;;5.30;;
13807;SDS011;40769;51.512;5.494;2023-03-01T02:52:06;5.57;;;5.00;;
13807;SDS011;40769;51.512;5.494;2023-03-01T02:54:43;5.17;;;4.77;;
13807;SDS011;40769;51.512;5.494;2023-03-01T02:57:15;5.83;;;5.23;;
13807;SDS011;40769;51.512;5.494;2023-03-01T02:59:41;5.70;;;5.20;;
13807;SDS011;40769;51.512;5.494;2023-03-01T03:02:18;5.63;;;5.13;;
13807;SDS011;40769;51.512;5.494;2023-03-01T03:04:45;5.60;;;5.10;;
13807;SDS011;40769;51.512;5.494;2023-03-01T03:07:11;5.53;;;5.03;;
13807;SDS011;40769;51.512;5.494;2023-03-01T03:09:37;5.70;;;5.20;;
13807;SDS011;40769;51.512;5.494;2023-03-01T03:12:03;6.03;;;5.47;;
13807;SDS011;40769;51.512;5.494;2023-03-01T03:14:29;6.17;;;5.60;;
13807;SDS011;40769;51.512;5.494;2023-03-01T03:16:54;6.60;;;5.90;;
13807;SDS011;40769;51.512;5.494;2023-03-01T03:19:20;5.57;;;5.07;;
13807;SDS011;40769;51.512;5.494;2023-03-01T03:21:45;6.00;;;5.40;;
13807;SDS011;40769;51.512;5.494;2023-03-01T03:24:11;5.77;;;5.27;;
13807;SDS011;40769;51.512;5.494;2023-03-01T03:26:37;5.93;;;5.33;;
13807;SDS011;40769;51.512;5.494;2023-03-01T03:29:02;6.30;;;5.50;;
13807;SDS011;40769;51.512;5.494;2023-03-01T03:31:28;6.53;;;5.93;;
13807;SDS011;40769;51.512;5.494;2023-03-01T03:33:54;6.10;;;5.50;;
13807;SDS011;40769;51.512;5.494;2023-03-01T03:36:21;6.60;;;6.03;;
13807;SDS011;40769;51.512;5.494;2023-03-01T03:38:48;6.37;;;5.77;;
13807;SDS011;40769;51.512;5.494;2023-03-01T03:41:14;6.40;;;5.07;;
13807;SDS011;40769;51.512;5.494;2023-03-01T03:43:40;6.50;;;5.80;;
13807;SDS011;40769;51.512;5.494;2023-03-01T03:46:08;6.33;;;5.73;;
13807;SDS011;40769;51.512;5.494;2023-03-01T03:48:35;6.87;;;6.17;;
13807;SDS011;40769;51.512;5.494;2023-03-01T03:51:03;6.20;;;5.60;;
13807;SDS011;40769;51.512;5.494;2023-03-01T03:53:31;6.00;;;5.40;;
13807;SDS011;40769;51.512;5.494;2023-03-01T03:55:57;6.27;;;5.67;;
13807;SDS011;40769;51.512;5.494;2023-03-01T03:58:23;6.53;;;5.93;;
13807;SDS011;40769;51.512;5.494;2023-03-01T04:00:53;6.17;;;5.57;;
13807;SDS011;40769;51.512;5.494;2023-03-01T04:03:23;6.17;;;5.57;;
13807;SDS011;40769;51.512;5.494;2023-03-01T04:05:51;6.20;;;5.60;;
13807;SDS011;40769;51.512;5.494;2023-03-01T04:08:17;6.70;;;5.93;;
13807;SDS011;40769;51.512;5.494;2023-03-01T04:10:48;5.20;;;4.70;;
13807;SDS011;40769;51.512;5.494;2023-03-01T04:13:17;7.13;;;5.53;;
13807;SDS011;40769;51.512;5.494;2023-03-01T04:15:50;6.43;;;5.47;;
13807;SDS011;40769;51.512;5.494;2023-03-01T04:18:17;5.17;;;4.70;;
13807;SDS011;40769;51.512;5.494;2023-03-01T04:20:45;4.67;;;4.27;;
13807;SDS011;40769;51.512;5.494;2023-03-01T04:23:20;5.40;;;4.90;;
13807;SDS011;40769;51.512;5.494;2023-03-01T04:25:47;5.57;;;5.07;;
13807;SDS011;40769;51.512;5.494;2023-03-01T04:28:24;5.60;;;5.10;;
13807;SDS011;40769;51.512;5.494;2023-03-01T04:30:53;5.20;;;4.70;;
13807;SDS011;40769;51.512;5.494;2023-03-01T04:33:20;5.50;;;4.90;;
13807;SDS011;40769;51.512;5.494;2023-03-01T04:35:46;4.47;;;4.07;;
13807;SDS011;40769;51.512;5.494;2023-03-01T04:38:14;4.33;;;3.93;;
13807;SDS011;40769;51.512;5.494;2023-03-01T04:40:40;5.23;;;4.83;;
13807;SDS011;40769;51.512;5.494;2023-03-01T04:43:08;5.23;;;4.73;;
13807;SDS011;40769;51.512;5.494;2023-03-01T04:45:35;5.60;;;5.10;;
13807;SDS011;40769;51.512;5.494;2023-03-01T04:48:01;5.10;;;4.60;;
13807;SDS011;40769;51.512;5.494;2023-03-01T04:50:27;4.97;;;4.47;;
13807;SDS011;40769;51.512;5.494;2023-03-01T04:52:54;4.80;;;4.40;;
13807;SDS011;40769;51.512;5.494;2023-03-01T04:55:23;5.47;;;4.80;;
13807;SDS011;40769;51.512;5.494;2023-03-01T04:57:52;4.77;;;4.37;;
13807;SDS011;40769;51.512;5.494;2023-03-01T05:00:18;4.67;;;4.27;;
13807;SDS011;40769;51.512;5.494;2023-03-01T05:02:48;3.53;;;3.23;;
13807;SDS011;40769;51.512;5.494;2023-03-01T05:05:18;4.07;;;3.77;;
13807;SDS011;40769;51.512;5.494;2023-03-01T05:07:50;5.47;;;4.97;;
13807;SDS011;40769;51.512;5.494;2023-03-01T05:10:16;5.50;;;5.00;;
13807;SDS011;40769;51.512;5.494;2023-03-01T05:12:42;5.67;;;5.17;;
13807;SDS011;40769;51.512;5.494;2023-03-01T05:15:08;4.80;;;4.40;;
13807;SDS011;40769;51.512;5.494;2023-03-01T05:17:33;5.10;;;4.60;;
13807;SDS011;40769;51.512;5.494;2023-03-01T05:19:59;5.50;;;5.00;;
13807;SDS011;40769;51.512;5.494;2023-03-01T05:22:25;5.63;;;5.13;;
13807;SDS011;40769;51.512;5.494;2023-03-01T05:24:51;5.17;;;4.40;;
13807;SDS011;40769;51.512;5.494;2023-03-01T05:27:18;5.20;;;4.70;;
13807;SDS011;40769;51.512;5.494;2023-03-01T05:29:47;4.90;;;4.07;;
13807;SDS011;40769;51.512;5.494;2023-03-01T05:32:12;5.03;;;4.53;;
13807;SDS011;40769;51.512;5.494;2023-03-01T05:34:40;4.70;;;4.30;;
13807;SDS011;40769;51.512;5.494;2023-03-01T05:37:07;4.50;;;4.10;;
13807;SDS011;40769;51.512;5.494;2023-03-01T05:39:33;4.90;;;4.43;;
13807;SDS011;40769;51.512;5.494;2023-03-01T05:41:59;5.30;;;4.80;;
13807;SDS011;40769;51.512;5.494;2023-03-01T05:44:26;5.57;;;5.07;;
13807;SDS011;40769;51.512;5.494;2023-03-01T05:46:53;6.07;;;5.47;;
13807;SDS011;40769;51.512;5.494;2023-03-01T05:49:19;6.00;;;5.40;;
13807;SDS011;40769;51.512;5.494;2023-03-01T05:51:50;5.50;;;5.00;;
13807;SDS011;40769;51.512;5.494;2023-03-01T05:54:17;5.73;;;5.23;;
13807;SDS011;40769;51.512;5.494;2023-03-01T05:56:44;5.57;;;4.87;;
13807;SDS011;40769;51.512;5.494;2023-03-01T05:59:09;5.57;;;5.00;;
13807;SDS011;40769;51.512;5.494;2023-03-01T06:01:36;5.40;;;4.90;;
13807;SDS011;40769;51.512;5.494;2023-03-01T06:04:02;5.27;;;4.77;;
13807;SDS011;40769;51.512;5.494;2023-03-01T06:06:29;5.50;;;5.00;;
13807;SDS011;40769;51.512;5.494;2023-03-01T06:08:58;6.13;;;5.57;;
13807;SDS011;40769;51.512;5.494;2023-03-01T06:11:23;6.63;;;6.03;;
13807;SDS011;40769;51.512;5.494;2023-03-01T06:13:49;6.50;;;5.90;;
13807;SDS011;40769;51.512;5.494;2023-03-01T06:16:14;6.20;;;5.60;;
13807;SDS011;40769;51.512;5.494;2023-03-01T06:18:40;7.00;;;6.13;;
13807;SDS011;40769;51.512;5.494;2023-03-01T06:21:06;6.83;;;6.20;;
13807;SDS011;40769;51.512;5.494;2023-03-01T06:23:33;6.60;;;6.00;;
13807;SDS011;40769;51.512;5.494;2023-03-01T06:25:58;6.13;;;5.53;;
13807;SDS011;40769;51.512;5.494;2023-03-01T06:28:24;6.60;;;6.00;;
13807;SDS011;40769;51.512;5.494;2023-03-01T06:30:50;6.37;;;5.77;;
13807;SDS011;40769;51.512;5.494;2023-03-01T06:33:16;5.90;;;5.30;;
13807;SDS011;40769;51.512;5.494;2023-03-01T06:35:44;5.37;;;4.90;;
13807;SDS011;40769;51.512;5.494;2023-03-01T06:38:11;5.73;;;5.20;;
13807;SDS011;40769;51.512;5.494;2023-03-01T06:40:39;7.40;;;6.70;;
13807;SDS011;40769;51.512;5.494;2023-03-01T06:43:05;7.00;;;6.30;;
13807;SDS011;40769;51.512;5.494;2023-03-01T06:45:32;6.57;;;5.97;;
13807;SDS011;40769;51.512;5.494;2023-03-01T06:48:01;6.87;;;6.17;;
13807;SDS011;40769;51.512;5.494;2023-03-01T06:50:31;6.57;;;5.93;;
13807;SDS011;40769;51.512;5.494;2023-03-01T06:52:57;6.90;;;6.20;;
13807;SDS011;40769;51.512;5.494;2023-03-01T06:55:23;7.03;;;6.33;;
13807;SDS011;40769;51.512;5.494;2023-03-01T06:57:53;7.37;;;6.67;;
13807;SDS011;40769;51.512;5.494;2023-03-01T07:00:21;6.30;;;5.70;;
13807;SDS011;40769;51.512;5.494;2023-03-01T07:02:47;6.90;;;6.13;;
13807;SDS011;40769;51.512;5.494;2023-03-01T07:05:12;7.37;;;6.67;;
13807;SDS011;40769;51.512;5.494;2023-03-01T07:07:38;7.83;;;6.90;;
13807;SDS011;40769;51.512;5.494;2023-03-01T07:10:03;6.80;;;6.20;;
13807;SDS011;40769;51.512;5.494;2023-03-01T07:12:29;7.23;;;6.53;;
13807;SDS011;40769;51.512;5.494;2023-03-01T07:14:55;7.30;;;6.63;;
13807;SDS011;40769;51.512;5.494;2023-03-01T07:17:20;6.73;;;6.13;;
13807;SDS011;40769;51.512;5.494;2023-03-01T07:19:46;6.77;;;6.17;;
13807;SDS011;40769;51.512;5.494;2023-03-01T07:22:12;7.50;;;6.80;;
13807;SDS011;40769;51.512;5.494;2023-03-01T07:24:37;7.50;;;6.90;;
13807;SDS011;40769;51.512;5.494;2023-03-01T07:27:03;8.10;;;6.90;;
13807;SDS011;40769;51.512;5.494;2023-03-01T07:29:29;7.63;;;6.97;;
13807;SDS011;40769;51.512;5.494;2023-03-01T07:31:54;7.77;;;6.97;;
13807;SDS011;40769;51.512;5.494;2023-03-01T07:34:20;7.40;;;6.70;;
13807;SDS011;40769;51.512;5.494;2023-03-01T07:36:46;7.40;;;6.33;;
13807;SDS011;40769;51.512;5.494;2023-03-01T07:39:12;6.00;;;5.50;;
13807;SDS011;40769;51.512;5.494;2023-03-01T07:41:38;5.77;;;5.27;;
13807;SDS011;40769;51.512;5.494;2023-03-01T07:44:03;6.30;;;5.73;;
13807;SDS011;40769;51.512;5.494;2023-03-01T07:46:29;7.27;;;6.40;;
13807;SDS011;40769;51.512;5.494;2023-03-01T07:48:55;7.88;;;7.15;;
13807;SDS011;40769;51.512;5.494;2023-03-01T07:51:20;6.30;;;5.80;;
13807;SDS011;40769;51.512;5.494;2023-03-01T07:53:46;6.93;;;6.32;;
13807;SDS011;40769;51.512;5.494;2023-03-01T07:56:13;7.05;;;6.35;;
13807;SDS011;40769;51.512;5.494;2023-03-01T07:58:42;7.25;;;6.65;;
13807;SDS011;40769;51.512;5.494;2023-03-01T08:01:10;7.50;;;6.80;;
13807;SDS011;40769;51.512;5.494;2023-03-01T08:03:39;7.10;;;6.50;;
13807;SDS011;40769;51.512;5.494;2023-03-01T08:06:06;7.25;;;6.65;;
13807;SDS011;40769;51.512;5.494;2023-03-01T08:08:33;7.05;;;6.45;;
13807;SDS011;40769;51.512;5.494;2023-03-01T08:11:00;6.25;;;5.72;;
13807;SDS011;40769;51.512;5.494;2023-03-01T08:13:27;5.25;;;4.80;;
13807;SDS011;40769;51.512;5.494;2023-03-01T08:15:53;5.72;;;5.22;;
13807;SDS011;40769;51.512;5.494;2023-03-01T08:18:19;6.85;;;6.25;;
13807;SDS011;40769;51.512;5.494;2023-03-01T08:20:45;6.00;;;5.50;;
13807;SDS011;40769;51.512;5.494;2023-03-01T08:23:11;6.63;;;5.95;;
13807;SDS011;40769;51.512;5.494;2023-03-01T08:25:37;6.28;;;5.78;;
13807;SDS011;40769;51.512;5.494;2023-03-01T08:28:03;5.13;;;4.72;;
13807;SDS011;40769;51.512;5.494;2023-03-01T08:30:29;5.03;;;4.53;;
13807;SDS011;40769;51.512;5.494;2023-03-01T08:32:55;4.18;;;3.85;;
13807;SDS011;40769;51.512;5.494;2023-03-01T08:35:21;4.93;;;4.53;;
13807;SDS011;40769;51.512;5.494;2023-03-01T08:37:47;5.72;;;5.22;;
13807;SDS011;40769;51.512;5.494;2023-03-01T08:40:13;5.47;;;4.97;;
13807;SDS011;40769;51.512;5.494;2023-03-01T08:42:39;6.20;;;5.60;;
13807;SDS011;40769;51.512;5.494;2023-03-01T08:45:06;5.63;;;5.13;;
13807;SDS011;40769;51.512;5.494;2023-03-01T08:47:32;5.70;;;5.20;;
13807;SDS011;40769;51.512;5.494;2023-03-01T08:49:58;5.15;;;4.65;;
13807;SDS011;40769;51.512;5.494;2023-03-01T08:52:25;5.22;;;4.72;;
13807;SDS011;40769;51.512;5.494;2023-03-01T08:54:51;5.20;;;4.80;;
13807;SDS011;40769;51.512;5.494;2023-03-01T08:57:17;5.32;;;4.82;;
13807;SDS011;40769;51.512;5.494;2023-03-01T08:59:43;4.78;;;4.38;;
13807;SDS011;40769;51.512;5.494;2023-03-01T09:02:11;5.25;;;4.80;;
13807;SDS011;40769;51.512;5.494;2023-03-01T09:04:39;5.50;;;4.90;;
13807;SDS011;40769;51.512;5.494;2023-03-01T09:07:04;5.68;;;5.18;;
13807;SDS011;40769;51.512;5.494;2023-03-01T09:09:30;5.43;;;4.93;;
13807;SDS011;40769;51.512;5.494;2023-03-01T09:11:56;5.55;;;5.05;;
13807;SDS011;40769;51.512;5.494;2023-03-01T09:14:21;5.45;;;4.95;;
13807;SDS011;40769;51.512;5.494;2023-03-01T09:16:47;4.93;;;4.53;;
13807;SDS011;40769;51.512;5.494;2023-03-01T09:19:13;5.22;;;4.82;;
13807;SDS011;40769;51.512;5.494;2023-03-01T09:21:39;5.57;;;5.07;;
13807;SDS011;40769;51.512;5.494;2023-03-01T09:24:04;5.88;;;5.32;;
13807;SDS011;40769;51.512;5.494;2023-03-01T09:26:31;5.72;;;5.22;;
13807;SDS011;40769;51.512;5.494;2023-03-01T09:28:56;6.05;;;5.55;;
13807;SDS011;40769;51.512;5.494;2023-03-01T09:31:23;5.57;;;5.07;;
13807;SDS011;40769;51.512;5.494;2023-03-01T09:33:51;5.85;;;5.35;;
13807;SDS011;40769;51.512;5.494;2023-03-01T09:36:19;5.78;;;5.28;;
13807;SDS011;40769;51.512;5.494;2023-03-01T09:38:47;5.32;;;4.78;;
13807;SDS011;40769;51.512;5.494;2023-03-01T09:44:05;5.60;;;5.10;;
13807;SDS011;40769;51.512;5.494;2023-03-01T09:47:04;5.40;;;4.90;;
13807;SDS011;40769;51.512;5.494;2023-03-01T09:49:31;5.25;;;4.75;;
13807;SDS011;40769;51.512;5.494;2023-03-01T09:52:04;5.07;;;4.63;;
13807;SDS011;40769;51.512;5.494;2023-03-01T09:54:44;5.55;;;4.80;;
13807;SDS011;40769;51.512;5.494;2023-03-01T09:57:20;5.63;;;5.07;;
13807;SDS011;40769;51.512;5.494;2023-03-01T10:00:49;5.68;;;5.18;;
13807;SDS011;40769;51.512;5.494;2023-03-01T10:03:16;5.50;;;5.00;;
13807;SDS011;40769;51.512;5.494;2023-03-01T10:11:17;5.07;;;4.65;;
13807;SDS011;40769;51.512;5.494;2023-03-01T10:13:52;5.18;;;4.70;;
13807;SDS011;40769;51.512;5.494;2023-03-01T10:16:46;5.20;;;4.80;;
13807;SDS011;40769;51.512;5.494;2023-03-01T10:19:21;5.13;;;4.63;;
13807;SDS011;40769;51.512;5.494;2023-03-01T10:21:52;5.03;;;4.60;;
13807;SDS011;40769;51.512;5.494;2023-03-01T10:24:19;5.10;;;4.70;;
13807;SDS011;40769;51.512;5.494;2023-03-01T10:29:21;4.75;;;4.35;;
13807;SDS011;40769;51.512;5.494;2023-03-01T10:31:51;5.15;;;4.75;;
13807;SDS011;40769;51.512;5.494;2023-03-01T10:34:20;5.60;;;4.90;;
13807;SDS011;40769;51.512;5.494;2023-03-01T10:36:52;5.32;;;4.82;;
13807;SDS011;40769;51.512;5.494;2023-03-01T10:39:22;5.00;;;4.60;;
13807;SDS011;40769;51.512;5.494;2023-03-01T10:41:54;5.43;;;4.97;;
13807;SDS011;40769;51.512;5.494;2023-03-01T10:44:35;5.85;;;5.28;;
13807;SDS011;40769;51.512;5.494;2023-03-01T10:47:07;5.13;;;4.60;;
13807;SDS011;40769;51.512;5.494;2023-03-01T10:52:55;5.45;;;4.97;;
13807;SDS011;40769;51.512;5.494;2023-03-01T10:55:36;6.10;;;5.60;;
13807;SDS011;40769;51.512;5.494;2023-03-01T10:58:20;5.97;;;5.38;;
13807;SDS011;40769;51.512;5.494;2023-03-01T11:03:24;5.80;;;5.30;;
13807;SDS011;40769;51.512;5.494;2023-03-01T11:05:57;6.45;;;5.85;;
13807;SDS011;40769;51.512;5.494;2023-03-01T11:14:15;5.85;;;5.25;;
13807;SDS011;40769;51.512;5.494;2023-03-01T11:16:57;6.13;;;5.63;;
13807;SDS011;40769;51.512;5.494;2023-03-01T11:19:25;6.30;;;5.70;;
13807;SDS011;40769;51.512;5.494;2023-03-01T11:29:55;5.43;;;4.93;;
13807;SDS011;40769;51.512;5.494;2023-03-01T11:32:42;5.85;;;5.35;;
13807;SDS011;40769;51.512;5.494;2023-03-01T11:35:25;5.45;;;5.05;;
13807;SDS011;40769;51.512;5.494;2023-03-01T11:48:49;6.00;;;5.40;;
13807;SDS011;40769;51.512;5.494;2023-03-01T11:51:22;5.20;;;4.80;;
13807;SDS011;40769;51.512;5.494;2023-03-01T11:54:06;5.40;;;4.90;;
13807;SDS011;40769;51.512;5.494;2023-03-01T11:56:55;5.25;;;4.75;;
13807;SDS011;40769;51.512;5.494;2023-03-01T12:10:47;6.03;;;5.43;;
13807;SDS011;40769;51.512;5.494;2023-03-01T12:19:15;5.40;;;4.95;;
13807;SDS011;40769;51.512;5.494;2023-03-01T12:30:30;4.72;;;4.32;;
13807;SDS011;40769;51.512;5.494;2023-03-01T12:33:21;6.70;;;5.32;;
13807;SDS011;40769;51.512;5.494;2023-03-01T12:41:29;5.32;;;4.90;;
13807;SDS011;40769;51.512;5.494;2023-03-01T12:49:45;5.85;;;5.35;;
13807;SDS011;40769;51.512;5.494;2023-03-01T12:52:22;5.40;;;4.90;;
13807;SDS011;40769;51.512;5.494;2023-03-01T12:55:18;5.28;;;4.78;;
13807;SDS011;40769;51.512;5.494;2023-03-01T12:57:54;4.93;;;4.53;;
13807;SDS011;40769;51.512;5.494;2023-03-01T13:00:39;5.07;;;4.68;;
13807;SDS011;40769;51.512;5.494;2023-03-01T13:08:46;5.22;;;4.82;;
13807;SDS011;40769;51.512;5.494;2023-03-01T13:11:20;5.80;;;5.30;;
13807;SDS011;40769;51.512;5.494;2023-03-01T13:13:47;5.22;;;4.82;;
13807;SDS011;40769;51.512;5.494;2023-03-01T13:16:21;5.13;;;4.72;;
13807;SDS011;40769;51.512;5.494;2023-03-01T13:18:47;5.65;;;5.15;;
13807;SDS011;40769;51.512;5.494;2023-03-01T13:21:13;5.35;;;4.95;;
13807;SDS011;40769;51.512;5.494;2023-03-01T13:23:55;5.32;;;4.82;;
13807;SDS011;40769;51.512;5.494;2023-03-01T13:26:20;5.18;;;4.78;;
13807;SDS011;40769;51.512;5.494;2023-03-01T13:28:53;5.32;;;4.82;;
13807;SDS011;40769;51.512;5.494;2023-03-01T13:37:01;5.45;;;4.95;;
13807;SDS011;40769;51.512;5.494;2023-03-01T13:44:21;4.97;;;4.57;;
13807;SDS011;40769;51.512;5.494;2023-03-01T13:49:48;5.18;;;4.78;;
13807;SDS011;40769;51.512;5.494;2023-03-01T13:52:36;4.70;;;4.30;;
13807;SDS011;40769;51.512;5.494;2023-03-01T13:57:38;4.90;;;4.50;;
13807;SDS011;40769;51.512;5.494;2023-03-01T14:00:23;5.38;;;4.85;;
13807;SDS011;40769;51.512;5.494;2023-03-01T14:05:33;5.45;;;5.03;;
13807;SDS011;40769;51.512;5.494;2023-03-01T14:08:00;5.22;;;4.82;;
13807;SDS011;40769;51.512;5.494;2023-03-01T14:10:44;5.65;;;5.15;;
13807;SDS011;40769;51.512;5.494;2023-03-01T14:21:23;5.30;;;4.80;;
13807;SDS011;40769;51.512;5.494;2023-03-01T14:23:50;5.10;;;4.60;;
13807;SDS011;40769;51.512;5.494;2023-03-01T14:26:21;5.00;;;4.50;;
13807;SDS011;40769;51.512;5.494;2023-03-01T14:28:47;4.63;;;4.32;;
13807;SDS011;40769;51.512;5.494;2023-03-01T14:31:31;4.82;;;4.43;;
13807;SDS011;40769;51.512;5.494;2023-03-01T14:34:01;4.80;;;4.40;;
13807;SDS011;40769;51.512;5.494;2023-03-01T14:36:31;5.60;;;5.10;;
13807;SDS011;40769;51.512;5.494;2023-03-01T14:38:58;4.50;;;4.10;;
13807;SDS011;40769;51.512;5.494;2023-03-01T14:41:29;5.95;;;5.45;;
13807;SDS011;40769;51.512;5.494;2023-03-01T14:44:00;5.93;;;5.40;;
13807;SDS011;40769;51.512;5.494;2023-03-01T14:46:41;5.25;;;4.75;;
13807;SDS011;40769;51.512;5.494;2023-03-01T14:49:19;5.03;;;4.63;;
13807;SDS011;40769;51.512;5.494;2023-03-01T14:51:57;5.63;;;5.15;;
13807;SDS011;40769;51.512;5.494;2023-03-01T14:54:40;7.40;;;5.75;;
13807;SDS011;40769;51.512;5.494;2023-03-01T14:57:12;5.50;;;5.00;;
13807;SDS011;40769;51.512;5.494;2023-03-01T14:59:51;4.95;;;4.45;;
13807;SDS011;40769;51.512;5.494;2023-03-01T15:02:20;5.30;;;4.80;;
13807;SDS011;40769;51.512;5.494;2023-03-01T15:04:52;5.43;;;4.95;;
13807;SDS011;40769;51.512;5.494;2023-03-01T15:07:21;5.72;;;5.22;;
13807;SDS011;40769;51.512;5.494;2023-03-01T15:09:51;5.35;;;4.90;;
13807;SDS011;40769;51.512;5.494;2023-03-01T15:15:18;5.03;;;4.57;;
13807;SDS011;40769;51.512;5.494;2023-03-01T15:18:11;4.55;;;4.15;;
13807;SDS011;40769;51.512;5.494;2023-03-01T15:20:43;4.85;;;4.45;;
13807;SDS011;40769;51.512;5.494;2023-03-01T15:23:47;4.90;;;4.45;;
13807;SDS011;40769;51.512;5.494;2023-03-01T15:26:02;5.78;;;5.20;;
13807;SDS011;40769;51.512;5.494;2023-03-01T15:28:32;5.13;;;4.63;;
13807;SDS011;40769;51.512;5.494;2023-03-01T15:31:12;5.82;;;4.57;;
13807;SDS011;40769;51.512;5.494;2023-03-01T15:33:45;5.20;;;4.70;;
13807;SDS011;40769;51.512;5.494;2023-03-01T15:36:37;6.07;;;5.47;;
13807;SDS011;40769;51.512;5.494;2023-03-01T15:41:55;5.82;;;5.32;;
13807;SDS011;40769;51.512;5.494;2023-03-01T15:44:28;5.50;;;5.00;;
13807;SDS011;40769;51.512;5.494;2023-03-01T15:46:56;5.60;;;5.03;;
13807;SDS011;40769;51.512;5.494;2023-03-01T15:51:56;6.00;;;5.50;;
13807;SDS011;40769;51.512;5.494;2023-03-01T15:54:23;6.10;;;5.50;;
13807;SDS011;40769;51.512;5.494;2023-03-01T15:56:51;6.85;;;6.20;;
13807;SDS011;40769;51.512;5.494;2023-03-01T15:59:17;6.28;;;5.68;;
13807;SDS011;40769;51.512;5.494;2023-03-01T16:01:43;6.20;;;5.68;;
13807;SDS011;40769;51.512;5.494;2023-03-01T16:04:10;6.18;;;5.60;;
13807;SDS011;40769;51.512;5.494;2023-03-01T16:06:54;6.47;;;5.88;;
13807;SDS011;40769;51.512;5.494;2023-03-01T16:09:23;6.40;;;5.82;;
13807;SDS011;40769;51.512;5.494;2023-03-01T16:11:50;5.93;;;5.43;;
13807;SDS011;40769;51.512;5.494;2023-03-01T16:14:17;6.20;;;5.70;;
13807;SDS011;40769;51.512;5.494;2023-03-01T16:16:43;6.53;;;5.93;;
13807;SDS011;40769;51.512;5.494;2023-03-01T16:19:09;6.32;;;5.80;;
13807;SDS011;40769;51.512;5.494;2023-03-01T16:21:35;6.35;;;5.75;;
13807;SDS011;40769;51.512;5.494;2023-03-01T16:24:01;6.10;;;5.60;;
13807;SDS011;40769;51.512;5.494;2023-03-01T16:26:27;7.03;;;6.32;;
13807;SDS011;40769;51.512;5.494;2023-03-01T16:28:56;6.78;;;6.15;;
13807;SDS011;40769;51.512;5.494;2023-03-01T16:31:23;6.45;;;5.85;;
13807;SDS011;40769;51.512;5.494;2023-03-01T16:33:52;5.80;;;5.30;;
13807;SDS011;40769;51.512;5.494;2023-03-01T16:36:19;5.97;;;5.43;;
13807;SDS011;40769;51.512;5.494;2023-03-01T16:38:48;6.63;;;6.10;;
13807;SDS011;40769;51.512;5.494;2023-03-01T16:41:15;6.97;;;6.38;;
13807;SDS011;40769;51.512;5.494;2023-03-01T16:43:42;7.88;;;7.15;;
13807;SDS011;40769;51.512;5.494;2023-03-01T16:46:16;7.63;;;6.93;;
13807;SDS011;40769;51.512;5.494;2023-03-01T16:48:50;8.15;;;7.40;;
13807;SDS011;40769;51.512;5.494;2023-03-01T16:51:16;7.35;;;6.65;;
13807;SDS011;40769;51.512;5.494;2023-03-01T16:53:43;6.85;;;6.20;;
13807;SDS011;40769;51.512;5.494;2023-03-01T16:56:09;7.45;;;6.78;;
13807;SDS011;40769;51.512;5.494;2023-03-01T16:58:37;7.32;;;6.63;;
13807;SDS011;40769;51.512;5.494;2023-03-01T17:01:08;8.20;;;7.30;;
13807;SDS011;40769;51.512;5.494;2023-03-01T17:03:38;8.80;;;8.00;;